x

Point Arguello, Ca (ptgc1) Weather Station

9:00am - Fri 23rd Jun 2017 All times are PDT. -7 hours from GMT.

  • Wind
    5mph, 5mph gusts
  • Air Temp 56°f
  • Sea Pressure 1013.7mb
  • Point Arguello, Ca
  • Point Arguello, Ca

More Historic Weather Station data

Upgrade to MSW Pro to gain access to the past 30 days of data for over 8000 Wavebouys and Weather Stations around the globe.

Join Pro

Comparision Forecast

View Surf forecast
   
Fri 06/23 9:00am 5 5 mph 1013.7mb 56f
8:00am 2 3 mph 1013.5mb 56f
7:00am 1 2 mph 1013.1mb 56f
6:00am 5 6 mph 1012.8mb 56f
5:00am 3 7 mph 1012.4mb 56f
4:00am 6 7 mph 1012.3mb 56f
3:00am 5 8 mph 1012.1mb 56f
2:00am 6 10 mph 1012.1mb 56f
1:00am 6 8 mph 1012mb 56f
12:00am 5 6 mph 1012.1mb 56f
Thu 06/22 11:00pm 6 8 mph 1011.8mb 56f
10:00pm 6 9 mph 1011.3mb 56f
9:00pm 9 13 mph 1010.8mb 56f
8:00pm 10 13 mph 1010.3mb 56f
7:00pm 10 15 mph 1009.9mb 57f
6:00pm 9 15 mph 1010mb 57f
5:00pm 10 17 mph 1009.9mb 56f
4:00pm 17 22 mph 1009.7mb 56f
3:00pm 13 21 mph 1009.9mb 58f
2:00pm 15 24 mph 1010mb 57f
1:00pm 22 26 mph 1009.9mb 56f
12:00pm 20 30 mph 1009.5mb 57f
11:00am 13 24 mph 1009.3mb 56f
10:00am 10 18 mph 1008.9mb 55f
9:00am 15 17 mph 1008.9mb 54f
8:00am 6 9 mph 1008.7mb 53f
7:00am  -  1 mph 1008.3mb 53f
6:00am 6 6 mph 1007.7mb 52f
5:00am 6 7 mph 1007.4mb 52f
4:00am 8 9 mph 1007.2mb 52f
3:00am 10 11 mph 1007.1mb 53f
2:00am 11 13 mph 1007.3mb 53f
1:00am 13 14 mph 1007.4mb 53f
12:00am 16 17 mph 1007.4mb 53f
Wed 06/21 11:00pm 21 22 mph 1007.2mb 53f
10:00pm 26 29 mph 1007mb 53f
9:00pm 29 30 mph 1006.5mb 54f
8:00pm 28 29 mph 1006.7mb 54f
7:00pm 24 25 mph 1007mb 55f
6:00pm 26 28 mph 1007.1mb 55f
5:00pm 26 29 mph 1007.7mb 55f
4:00pm 24 26 mph 1008.5mb 55f
3:00pm 25 26 mph 1009mb 55f
2:00pm 25 26 mph 1009.5mb 54f
1:00pm 25 28 mph 1009.8mb 54f
12:00pm 28 30 mph 1010.1mb 54f
11:00am 29 30 mph 1010.5mb 54f
10:00am 29 30 mph 1010.4mb 53f
9:00am 26 29 mph 1010.6mb 53f
8:00am 29 31 mph 1010.4mb 53f
7:00am 26 29 mph 1010.3mb 53f
6:00am 29 31 mph 1010.1mb 53f
5:00am 33 34 mph 1009.5mb 54f
4:00am 34 37 mph 1009.4mb 54f
3:00am 36 38 mph 1009.6mb 54f
2:00am 33 36 mph 1010mb 54f
1:00am 33 34 mph 1010.5mb 54f
12:00am 32 33 mph 1011mb 54f
Tue 06/20 11:00pm 31 33 mph 1011mb 54f
10:00pm 30 31 mph 1010.9mb 54f
9:00pm 30 32 mph 1010.7mb 54f
8:00pm 30 31 mph 1010.4mb 55f
7:00pm 32 33 mph 1010.2mb 55f
6:00pm 31 33 mph 1010.4mb 55f
5:00pm 30 31 mph 1011mb 55f
4:00pm 30 31 mph 1011.6mb 55f
3:00pm 26 28 mph 1012.1mb 55f
2:00pm 24 25 mph 1012.7mb 56f
1:00pm 22 24 mph 1012.9mb 56f
12:00pm 21 22 mph 1013.2mb 55f
11:00am 21 22 mph 1013.3mb 55f
10:00am 22 23 mph 1013mb 54f
9:00am 22 25 mph 1012.9mb 53f
8:00am 23 24 mph 1012.6mb 53f
7:00am 21 22 mph 1012.3mb 53f
6:00am 21 22 mph 1011.9mb 53f
5:00am 22 23 mph 1011.3mb 53f
4:00am 24 25 mph 1010.7mb 53f
3:00am 24 25 mph 1010.9mb 53f
2:00am 26 29 mph 1011mb 53f
1:00am 29 31 mph 1010.8mb 54f
12:00am 26 29 mph 1011.3mb 54f
Mon 06/19 11:00pm 26 29 mph 1011.5mb 54f
10:00pm 28 29 mph 1011.4mb 54f
9:00pm 28 29 mph 1010.9mb 55f
8:00pm 28 30 mph 1010.2mb 55f
7:00pm 29 30 mph 1010.1mb 56f
6:00pm 24 26 mph 1010.3mb 56f